sensor_id;sensor_type;location;lat;lon;timestamp;temperature;humidity
23637;DHT22;11995;50.842;4.456;2023-04-24T00:02:16;9.80;99.90
23637;DHT22;11995;50.842;4.456;2023-04-24T00:04:45;9.80;99.90
23637;DHT22;11995;50.842;4.456;2023-04-24T00:07:12;9.80;99.90
23637;DHT22;11995;50.842;4.456;2023-04-24T00:09:40;9.80;99.90
23637;DHT22;11995;50.842;4.456;2023-04-24T00:12:09;9.90;99.90
23637;DHT22;11995;50.842;4.456;2023-04-24T00:14:36;9.90;99.90
23637;DHT22;11995;50.842;4.456;2023-04-24T00:17:04;9.80;99.90
23637;DHT22;11995;50.842;4.456;2023-04-24T00:19:31;9.90;99.90
23637;DHT22;11995;50.842;4.456;2023-04-24T00:21:59;9.70;99.90
23637;DHT22;11995;50.842;4.456;2023-04-24T00:24:26;9.80;99.90
23637;DHT22;11995;50.842;4.456;2023-04-24T00:26:54;9.60;99.90
23637;DHT22;11995;50.842;4.456;2023-04-24T00:29:21;9.60;99.90
23637;DHT22;11995;50.842;4.456;2023-04-24T00:31:49;9.60;99.90
23637;DHT22;11995;50.842;4.456;2023-04-24T00:34:17;9.60;99.90
23637;DHT22;11995;50.842;4.456;2023-04-24T00:36:44;9.50;99.90
23637;DHT22;11995;50.842;4.456;2023-04-24T00:39:12;9.50;99.90
23637;DHT22;11995;50.842;4.456;2023-04-24T00:41:40;9.70;99.90
23637;DHT22;11995;50.842;4.456;2023-04-24T00:44:07;9.80;99.90
23637;DHT22;11995;50.842;4.456;2023-04-24T00:46:36;9.70;99.90
23637;DHT22;11995;50.842;4.456;2023-04-24T00:49:05;9.70;99.90
23637;DHT22;11995;50.842;4.456;2023-04-24T00:51:33;9.70;99.90
23637;DHT22;11995;50.842;4.456;2023-04-24T00:54:01;9.60;99.90
23637;DHT22;11995;50.842;4.456;2023-04-24T00:56:28;9.50;99.90
23637;DHT22;11995;50.842;4.456;2023-04-24T00:58:56;9.50;99.90
23637;DHT22;11995;50.842;4.456;2023-04-24T01:01:23;9.70;99.90
23637;DHT22;11995;50.842;4.456;2023-04-24T01:03:51;9.80;99.90
23637;DHT22;11995;50.842;4.456;2023-04-24T01:06:20;9.70;99.90
23637;DHT22;11995;50.842;4.456;2023-04-24T01:08:49;9.80;99.90
23637;DHT22;11995;50.842;4.456;2023-04-24T01:11:18;9.80;99.90
23637;DHT22;11995;50.842;4.456;2023-04-24T01:13:46;9.80;99.90
23637;DHT22;11995;50.842;4.456;2023-04-24T01:16:15;9.60;99.90
23637;DHT22;11995;50.842;4.456;2023-04-24T01:18:44;9.60;99.90
23637;DHT22;11995;50.842;4.456;2023-04-24T01:21:14;9.60;99.90
23637;DHT22;11995;50.842;4.456;2023-04-24T01:23:44;9.50;99.90
23637;DHT22;11995;50.842;4.456;2023-04-24T01:26:17;9.50;99.90
23637;DHT22;11995;50.842;4.456;2023-04-24T01:28:43;9.50;99.90
23637;DHT22;11995;50.842;4.456;2023-04-24T01:31:10;9.50;99.90
23637;DHT22;11995;50.842;4.456;2023-04-24T01:33:38;9.40;99.90
23637;DHT22;11995;50.842;4.456;2023-04-24T01:36:06;9.40;99.90
23637;DHT22;11995;50.842;4.456;2023-04-24T01:38:34;9.50;99.90
23637;DHT22;11995;50.842;4.456;2023-04-24T01:41:01;9.50;99.90
23637;DHT22;11995;50.842;4.456;2023-04-24T01:43:29;9.50;99.90
23637;DHT22;11995;50.842;4.456;2023-04-24T01:45:57;9.50;99.90
23637;DHT22;11995;50.842;4.456;2023-04-24T01:48:25;9.40;99.90
23637;DHT22;11995;50.842;4.456;2023-04-24T01:50:52;9.30;99.90
23637;DHT22;11995;50.842;4.456;2023-04-24T01:53:20;9.30;99.90
23637;DHT22;11995;50.842;4.456;2023-04-24T01:55:47;9.20;99.90
23637;DHT22;11995;50.842;4.456;2023-04-24T01:58:15;9.30;99.90
23637;DHT22;11995;50.842;4.456;2023-04-24T02:00:43;9.30;99.90
23637;DHT22;11995;50.842;4.456;2023-04-24T02:03:10;9.30;99.90
23637;DHT22;11995;50.842;4.456;2023-04-24T02:05:38;9.20;99.90
23637;DHT22;11995;50.842;4.456;2023-04-24T02:08:05;9.10;99.90
23637;DHT22;11995;50.842;4.456;2023-04-24T02:10:33;9.10;99.90
23637;DHT22;11995;50.842;4.456;2023-04-24T02:13:00;9.20;99.90
23637;DHT22;11995;50.842;4.456;2023-04-24T02:15:28;9.10;99.90
23637;DHT22;11995;50.842;4.456;2023-04-24T02:17:56;9.10;99.90
23637;DHT22;11995;50.842;4.456;2023-04-24T02:20:24;9.10;99.90
23637;DHT22;11995;50.842;4.456;2023-04-24T02:22:51;9.10;99.90
23637;DHT22;11995;50.842;4.456;2023-04-24T02:25:19;9.10;99.90
23637;DHT22;11995;50.842;4.456;2023-04-24T02:27:46;9.20;99.90
23637;DHT22;11995;50.842;4.456;2023-04-24T02:30:14;9.10;99.90
23637;DHT22;11995;50.842;4.456;2023-04-24T02:32:41;9.20;99.90
23637;DHT22;11995;50.842;4.456;2023-04-24T02:35:09;9.20;99.90
23637;DHT22;11995;50.842;4.456;2023-04-24T02:37:37;9.20;99.90
23637;DHT22;11995;50.842;4.456;2023-04-24T02:40:05;9.20;99.90
23637;DHT22;11995;50.842;4.456;2023-04-24T02:42:33;9.20;99.90
23637;DHT22;11995;50.842;4.456;2023-04-24T02:45:01;9.20;99.90
23637;DHT22;11995;50.842;4.456;2023-04-24T02:47:28;9.20;99.90
23637;DHT22;11995;50.842;4.456;2023-04-24T02:49:56;9.30;99.90
23637;DHT22;11995;50.842;4.456;2023-04-24T02:52:24;9.20;99.90
23637;DHT22;11995;50.842;4.456;2023-04-24T02:54:52;9.10;99.90
23637;DHT22;11995;50.842;4.456;2023-04-24T02:57:20;9.10;99.90
23637;DHT22;11995;50.842;4.456;2023-04-24T02:59:47;9.10;99.90
23637;DHT22;11995;50.842;4.456;2023-04-24T03:02:15;9.00;99.90
23637;DHT22;11995;50.842;4.456;2023-04-24T03:04:42;9.00;99.90
23637;DHT22;11995;50.842;4.456;2023-04-24T03:07:10;9.00;99.90
23637;DHT22;11995;50.842;4.456;2023-04-24T03:09:38;9.00;99.90
23637;DHT22;11995;50.842;4.456;2023-04-24T03:12:06;9.00;99.90
23637;DHT22;11995;50.842;4.456;2023-04-24T03:14:33;9.10;99.90
23637;DHT22;11995;50.842;4.456;2023-04-24T03:17:01;8.90;99.90
23637;DHT22;11995;50.842;4.456;2023-04-24T03:19:28;9.00;99.90
23637;DHT22;11995;50.842;4.456;2023-04-24T03:21:56;9.10;99.90
23637;DHT22;11995;50.842;4.456;2023-04-24T03:24:23;9.10;99.90
23637;DHT22;11995;50.842;4.456;2023-04-24T03:26:51;9.10;99.90
23637;DHT22;11995;50.842;4.456;2023-04-24T03:29:18;9.20;99.90
23637;DHT22;11995;50.842;4.456;2023-04-24T03:31:46;9.10;99.90
23637;DHT22;11995;50.842;4.456;2023-04-24T03:34:13;9.10;99.90
23637;DHT22;11995;50.842;4.456;2023-04-24T03:36:41;9.10;99.90
23637;DHT22;11995;50.842;4.456;2023-04-24T03:39:08;9.10;99.90
23637;DHT22;11995;50.842;4.456;2023-04-24T03:41:36;8.90;99.90
23637;DHT22;11995;50.842;4.456;2023-04-24T03:44:04;8.90;99.90
23637;DHT22;11995;50.842;4.456;2023-04-24T03:46:31;8.80;99.90
23637;DHT22;11995;50.842;4.456;2023-04-24T03:48:59;8.70;99.90
23637;DHT22;11995;50.842;4.456;2023-04-24T03:51:26;8.70;99.90
23637;DHT22;11995;50.842;4.456;2023-04-24T03:53:58;8.60;99.90
23637;DHT22;11995;50.842;4.456;2023-04-24T03:56:25;8.60;99.90
23637;DHT22;11995;50.842;4.456;2023-04-24T03:58:52;8.50;99.90
23637;DHT22;11995;50.842;4.456;2023-04-24T04:01:20;8.60;99.90
23637;DHT22;11995;50.842;4.456;2023-04-24T04:03:48;8.60;99.90
23637;DHT22;11995;50.842;4.456;2023-04-24T04:06:15;8.70;99.90
23637;DHT22;11995;50.842;4.456;2023-04-24T04:08:42;8.70;99.90
23637;DHT22;11995;50.842;4.456;2023-04-24T04:11:10;8.70;99.90
23637;DHT22;11995;50.842;4.456;2023-04-24T04:13:38;8.80;99.90
23637;DHT22;11995;50.842;4.456;2023-04-24T04:16:07;8.80;99.90
23637;DHT22;11995;50.842;4.456;2023-04-24T04:18:35;8.90;99.90
23637;DHT22;11995;50.842;4.456;2023-04-24T04:21:04;8.90;99.90
23637;DHT22;11995;50.842;4.456;2023-04-24T04:23:31;8.90;99.90
23637;DHT22;11995;50.842;4.456;2023-04-24T04:25:59;8.90;99.90
23637;DHT22;11995;50.842;4.456;2023-04-24T04:28:27;8.90;99.90
23637;DHT22;11995;50.842;4.456;2023-04-24T04:30:55;8.90;99.90
23637;DHT22;11995;50.842;4.456;2023-04-24T04:33:24;8.80;99.90
23637;DHT22;11995;50.842;4.456;2023-04-24T04:35:52;8.80;99.90
23637;DHT22;11995;50.842;4.456;2023-04-24T04:38:20;8.90;99.90
23637;DHT22;11995;50.842;4.456;2023-04-24T04:40:47;8.90;99.90
23637;DHT22;11995;50.842;4.456;2023-04-24T04:43:15;8.80;99.90
23637;DHT22;11995;50.842;4.456;2023-04-24T04:45:43;8.80;99.90
23637;DHT22;11995;50.842;4.456;2023-04-24T04:48:11;8.90;99.90
23637;DHT22;11995;50.842;4.456;2023-04-24T04:50:40;8.80;99.90
23637;DHT22;11995;50.842;4.456;2023-04-24T04:53:07;8.70;99.90
23637;DHT22;11995;50.842;4.456;2023-04-24T04:55:35;8.60;99.90
23637;DHT22;11995;50.842;4.456;2023-04-24T04:58:03;8.60;99.90
23637;DHT22;11995;50.842;4.456;2023-04-24T05:00:31;8.60;99.90
23637;DHT22;11995;50.842;4.456;2023-04-24T05:03:01;8.60;99.90
23637;DHT22;11995;50.842;4.456;2023-04-24T05:05:29;8.60;99.90
23637;DHT22;11995;50.842;4.456;2023-04-24T05:07:56;8.60;99.90
23637;DHT22;11995;50.842;4.456;2023-04-24T05:10:24;8.60;99.90
23637;DHT22;11995;50.842;4.456;2023-04-24T05:12:52;8.60;99.90
23637;DHT22;11995;50.842;4.456;2023-04-24T05:15:19;8.50;99.90
23637;DHT22;11995;50.842;4.456;2023-04-24T05:17:47;8.50;99.90
23637;DHT22;11995;50.842;4.456;2023-04-24T05:20:14;8.50;99.90
23637;DHT22;11995;50.842;4.456;2023-04-24T05:22:42;8.50;99.90
23637;DHT22;11995;50.842;4.456;2023-04-24T05:25:09;8.50;99.90
23637;DHT22;11995;50.842;4.456;2023-04-24T05:27:37;8.50;99.90
23637;DHT22;11995;50.842;4.456;2023-04-24T05:30:05;8.50;99.90
23637;DHT22;11995;50.842;4.456;2023-04-24T05:32:34;8.60;99.90
23637;DHT22;11995;50.842;4.456;2023-04-24T05:35:01;8.70;99.90
23637;DHT22;11995;50.842;4.456;2023-04-24T05:37:29;8.70;99.90
23637;DHT22;11995;50.842;4.456;2023-04-24T05:39:57;8.70;99.90
23637;DHT22;11995;50.842;4.456;2023-04-24T05:42:25;8.80;99.90
23637;DHT22;11995;50.842;4.456;2023-04-24T05:44:52;8.70;99.90
23637;DHT22;11995;50.842;4.456;2023-04-24T05:47:21;8.60;99.90
23637;DHT22;11995;50.842;4.456;2023-04-24T05:49:51;8.60;99.90
23637;DHT22;11995;50.842;4.456;2023-04-24T05:52:18;8.70;99.90
23637;DHT22;11995;50.842;4.456;2023-04-24T05:54:46;8.60;99.90
23637;DHT22;11995;50.842;4.456;2023-04-24T05:57:13;8.70;99.90
23637;DHT22;11995;50.842;4.456;2023-04-24T05:59:41;8.70;99.90
23637;DHT22;11995;50.842;4.456;2023-04-24T06:02:08;8.60;99.90
23637;DHT22;11995;50.842;4.456;2023-04-24T06:04:36;8.70;99.90
23637;DHT22;11995;50.842;4.456;2023-04-24T06:07:04;8.70;99.90
23637;DHT22;11995;50.842;4.456;2023-04-24T06:09:32;8.70;99.90
23637;DHT22;11995;50.842;4.456;2023-04-24T06:12:00;8.60;99.90
23637;DHT22;11995;50.842;4.456;2023-04-24T06:14:27;8.60;99.90
23637;DHT22;11995;50.842;4.456;2023-04-24T06:16:55;8.50;99.90
23637;DHT22;11995;50.842;4.456;2023-04-24T06:19:23;8.50;99.90
23637;DHT22;11995;50.842;4.456;2023-04-24T06:21:51;8.50;99.90
23637;DHT22;11995;50.842;4.456;2023-04-24T06:24:18;8.50;99.90
23637;DHT22;11995;50.842;4.456;2023-04-24T06:26:46;8.50;99.90
23637;DHT22;11995;50.842;4.456;2023-04-24T06:29:14;8.50;99.90
23637;DHT22;11995;50.842;4.456;2023-04-24T06:31:41;8.50;99.90
23637;DHT22;11995;50.842;4.456;2023-04-24T06:34:09;8.50;99.90
23637;DHT22;11995;50.842;4.456;2023-04-24T06:36:36;8.50;99.90
23637;DHT22;11995;50.842;4.456;2023-04-24T06:39:04;8.60;99.90
23637;DHT22;11995;50.842;4.456;2023-04-24T06:41:31;8.60;99.90
23637;DHT22;11995;50.842;4.456;2023-04-24T06:43:59;8.60;99.90
23637;DHT22;11995;50.842;4.456;2023-04-24T06:46:26;8.60;99.90
23637;DHT22;11995;50.842;4.456;2023-04-24T06:48:54;8.60;99.90
23637;DHT22;11995;50.842;4.456;2023-04-24T06:51:25;8.70;99.90
23637;DHT22;11995;50.842;4.456;2023-04-24T06:53:54;8.70;99.90
23637;DHT22;11995;50.842;4.456;2023-04-24T06:56:23;8.60;99.90
23637;DHT22;11995;50.842;4.456;2023-04-24T06:58:51;8.70;99.90
23637;DHT22;11995;50.842;4.456;2023-04-24T07:01:19;8.70;99.90
23637;DHT22;11995;50.842;4.456;2023-04-24T07:03:47;8.90;99.90
23637;DHT22;11995;50.842;4.456;2023-04-24T07:06:14;8.90;99.90
23637;DHT22;11995;50.842;4.456;2023-04-24T07:08:43;8.90;99.90
23637;DHT22;11995;50.842;4.456;2023-04-24T07:11:10;9.00;99.90
23637;DHT22;11995;50.842;4.456;2023-04-24T07:13:38;8.90;99.90
23637;DHT22;11995;50.842;4.456;2023-04-24T07:16:07;8.90;99.90
23637;DHT22;11995;50.842;4.456;2023-04-24T07:18:35;8.90;99.90
23637;DHT22;11995;50.842;4.456;2023-04-24T07:21:03;8.90;99.90
23637;DHT22;11995;50.842;4.456;2023-04-24T07:23:31;8.90;99.90
23637;DHT22;11995;50.842;4.456;2023-04-24T07:25:59;9.00;99.90
23637;DHT22;11995;50.842;4.456;2023-04-24T07:28:26;9.00;99.90
23637;DHT22;11995;50.842;4.456;2023-04-24T07:30:56;9.10;99.90
23637;DHT22;11995;50.842;4.456;2023-04-24T07:33:23;9.20;99.90
23637;DHT22;11995;50.842;4.456;2023-04-24T07:35:51;9.30;99.90
23637;DHT22;11995;50.842;4.456;2023-04-24T07:38:19;9.20;99.90
23637;DHT22;11995;50.842;4.456;2023-04-24T07:40:49;9.20;99.90
23637;DHT22;11995;50.842;4.456;2023-04-24T07:43:17;9.20;99.90
23637;DHT22;11995;50.842;4.456;2023-04-24T07:45:44;9.30;99.90
23637;DHT22;11995;50.842;4.456;2023-04-24T07:48:12;9.30;99.90
23637;DHT22;11995;50.842;4.456;2023-04-24T07:50:42;9.40;99.90
23637;DHT22;11995;50.842;4.456;2023-04-24T07:53:09;9.40;99.90
23637;DHT22;11995;50.842;4.456;2023-04-24T07:55:38;9.30;99.90
23637;DHT22;11995;50.842;4.456;2023-04-24T07:58:05;9.20;99.90
23637;DHT22;11995;50.842;4.456;2023-04-24T08:00:33;9.30;99.90
23637;DHT22;11995;50.842;4.456;2023-04-24T08:03:01;9.40;99.90
23637;DHT22;11995;50.842;4.456;2023-04-24T08:05:29;9.30;99.90
23637;DHT22;11995;50.842;4.456;2023-04-24T08:07:56;9.30;99.90
23637;DHT22;11995;50.842;4.456;2023-04-24T08:10:24;9.50;99.90
23637;DHT22;11995;50.842;4.456;2023-04-24T08:12:52;9.70;99.90
23637;DHT22;11995;50.842;4.456;2023-04-24T08:15:19;9.80;99.90
23637;DHT22;11995;50.842;4.456;2023-04-24T08:17:47;9.80;99.90
23637;DHT22;11995;50.842;4.456;2023-04-24T08:20:15;9.70;99.90
23637;DHT22;11995;50.842;4.456;2023-04-24T08:22:43;9.60;99.90
23637;DHT22;11995;50.842;4.456;2023-04-24T08:25:11;9.60;99.90
23637;DHT22;11995;50.842;4.456;2023-04-24T08:27:38;9.60;99.90
23637;DHT22;11995;50.842;4.456;2023-04-24T08:30:07;9.70;99.90
23637;DHT22;11995;50.842;4.456;2023-04-24T08:32:35;9.70;99.90
23637;DHT22;11995;50.842;4.456;2023-04-24T08:35:03;10.00;99.90
23637;DHT22;11995;50.842;4.456;2023-04-24T08:37:30;10.00;99.90
23637;DHT22;11995;50.842;4.456;2023-04-24T08:39:58;10.00;99.90
23637;DHT22;11995;50.842;4.456;2023-04-24T08:42:27;10.10;99.90
23637;DHT22;11995;50.842;4.456;2023-04-24T08:44:55;10.20;99.90
23637;DHT22;11995;50.842;4.456;2023-04-24T08:47:25;10.10;99.90
23637;DHT22;11995;50.842;4.456;2023-04-24T08:49:54;10.00;99.90
23637;DHT22;11995;50.842;4.456;2023-04-24T08:52:23;10.10;99.90
23637;DHT22;11995;50.842;4.456;2023-04-24T08:54:51;10.30;99.90
23637;DHT22;11995;50.842;4.456;2023-04-24T08:57:20;10.40;99.90
23637;DHT22;11995;50.842;4.456;2023-04-24T08:59:47;10.50;99.90
23637;DHT22;11995;50.842;4.456;2023-04-24T09:02:17;10.60;99.90
23637;DHT22;11995;50.842;4.456;2023-04-24T09:04:46;10.70;99.90
23637;DHT22;11995;50.842;4.456;2023-04-24T09:07:16;10.90;99.90
23637;DHT22;11995;50.842;4.456;2023-04-24T09:09:44;10.90;99.90
23637;DHT22;11995;50.842;4.456;2023-04-24T09:12:13;11.00;99.90
23637;DHT22;11995;50.842;4.456;2023-04-24T09:14:40;11.20;99.90
23637;DHT22;11995;50.842;4.456;2023-04-24T09:17:09;11.40;99.90
23637;DHT22;11995;50.842;4.456;2023-04-24T09:19:37;11.40;99.90
23637;DHT22;11995;50.842;4.456;2023-04-24T09:22:06;11.50;99.90
23637;DHT22;11995;50.842;4.456;2023-04-24T09:24:34;11.60;99.90
23637;DHT22;11995;50.842;4.456;2023-04-24T09:27:02;11.50;99.90
23637;DHT22;11995;50.842;4.456;2023-04-24T09:29:30;11.40;99.90
23637;DHT22;11995;50.842;4.456;2023-04-24T09:31:58;11.60;99.90
23637;DHT22;11995;50.842;4.456;2023-04-24T09:34:27;11.70;99.90
23637;DHT22;11995;50.842;4.456;2023-04-24T09:36:54;11.40;99.90
23637;DHT22;11995;50.842;4.456;2023-04-24T09:39:22;11.10;99.90
23637;DHT22;11995;50.842;4.456;2023-04-24T09:41:54;10.90;99.90
23637;DHT22;11995;50.842;4.456;2023-04-24T09:44:27;10.70;99.90
23637;DHT22;11995;50.842;4.456;2023-04-24T09:46:59;10.90;99.90
23637;DHT22;11995;50.842;4.456;2023-04-24T09:49:28;11.00;99.90
23637;DHT22;11995;50.842;4.456;2023-04-24T09:52:07;11.00;99.90
23637;DHT22;11995;50.842;4.456;2023-04-24T09:54:35;11.00;99.90
23637;DHT22;11995;50.842;4.456;2023-04-24T09:57:08;11.30;99.90
23637;DHT22;11995;50.842;4.456;2023-04-24T09:59:38;11.60;99.90
23637;DHT22;11995;50.842;4.456;2023-04-24T10:02:16;11.70;99.90
23637;DHT22;11995;50.842;4.456;2023-04-24T10:04:36;11.50;99.90
23637;DHT22;11995;50.842;4.456;2023-04-24T10:07:03;11.40;99.90
23637;DHT22;11995;50.842;4.456;2023-04-24T10:09:33;11.30;99.90
23637;DHT22;11995;50.842;4.456;2023-04-24T10:12:01;11.30;99.90
23637;DHT22;11995;50.842;4.456;2023-04-24T10:14:30;11.40;99.90
23637;DHT22;11995;50.842;4.456;2023-04-24T10:16:58;11.60;99.90
23637;DHT22;11995;50.842;4.456;2023-04-24T10:19:26;11.50;99.90
23637;DHT22;11995;50.842;4.456;2023-04-24T10:21:55;11.50;99.90
23637;DHT22;11995;50.842;4.456;2023-04-24T10:24:23;11.60;99.90
23637;DHT22;11995;50.842;4.456;2023-04-24T10:26:51;11.40;99.90
23637;DHT22;11995;50.842;4.456;2023-04-24T10:29:19;11.40;99.90
23637;DHT22;11995;50.842;4.456;2023-04-24T10:31:48;11.40;99.90
23637;DHT22;11995;50.842;4.456;2023-04-24T10:34:17;11.30;99.90
23637;DHT22;11995;50.842;4.456;2023-04-24T10:36:51;11.20;99.90
23637;DHT22;11995;50.842;4.456;2023-04-24T10:39:16;11.30;99.90
23637;DHT22;11995;50.842;4.456;2023-04-24T10:41:45;11.30;99.90
23637;DHT22;11995;50.842;4.456;2023-04-24T10:44:15;11.20;99.90
23637;DHT22;11995;50.842;4.456;2023-04-24T10:46:47;11.30;99.90
23637;DHT22;11995;50.842;4.456;2023-04-24T10:49:16;11.50;99.90
23637;DHT22;11995;50.842;4.456;2023-04-24T10:51:48;11.70;99.90
23637;DHT22;11995;50.842;4.456;2023-04-24T10:54:33;11.70;99.90
23637;DHT22;11995;50.842;4.456;2023-04-24T10:59:51;12.00;99.90
23637;DHT22;11995;50.842;4.456;2023-04-24T11:02:35;11.90;99.90
23637;DHT22;11995;50.842;4.456;2023-04-24T11:04:51;11.70;99.90
23637;DHT22;11995;50.842;4.456;2023-04-24T11:07:20;11.60;99.90
23637;DHT22;11995;50.842;4.456;2023-04-24T11:09:49;11.60;99.90
23637;DHT22;11995;50.842;4.456;2023-04-24T11:12:18;11.60;99.90
23637;DHT22;11995;50.842;4.456;2023-04-24T11:17:35;11.50;99.90
23637;DHT22;11995;50.842;4.456;2023-04-24T11:20:09;11.40;99.90
23637;DHT22;11995;50.842;4.456;2023-04-24T11:22:38;11.50;99.90
23637;DHT22;11995;50.842;4.456;2023-04-24T11:25:10;11.40;99.90
23637;DHT22;11995;50.842;4.456;2023-04-24T11:27:41;11.50;99.90
23637;DHT22;11995;50.842;4.456;2023-04-24T11:30:09;11.50;99.90
23637;DHT22;11995;50.842;4.456;2023-04-24T11:32:38;11.60;99.90
23637;DHT22;11995;50.842;4.456;2023-04-24T11:35:17;11.80;99.90
23637;DHT22;11995;50.842;4.456;2023-04-24T11:37:51;11.90;99.90
23637;DHT22;11995;50.842;4.456;2023-04-24T11:40:19;12.10;99.90
23637;DHT22;11995;50.842;4.456;2023-04-24T11:42:47;12.20;99.90
23637;DHT22;11995;50.842;4.456;2023-04-24T11:45:21;12.20;99.90
23637;DHT22;11995;50.842;4.456;2023-04-24T11:47:48;12.10;99.90
23637;DHT22;11995;50.842;4.456;2023-04-24T11:50:18;12.20;99.90
23637;DHT22;11995;50.842;4.456;2023-04-24T11:52:47;12.10;99.90
23637;DHT22;11995;50.842;4.456;2023-04-24T11:57:53;12.10;99.90
23637;DHT22;11995;50.842;4.456;2023-04-24T12:00:21;12.10;99.90
23637;DHT22;11995;50.842;4.456;2023-04-24T12:02:49;12.30;99.90
23637;DHT22;11995;50.842;4.456;2023-04-24T12:05:29;12.50;99.90
23637;DHT22;11995;50.842;4.456;2023-04-24T12:07:54;12.60;99.90
23637;DHT22;11995;50.842;4.456;2023-04-24T12:10:23;12.80;99.90
23637;DHT22;11995;50.842;4.456;2023-04-24T12:12:54;12.90;99.90
23637;DHT22;11995;50.842;4.456;2023-04-24T12:15:23;12.60;99.90
23637;DHT22;11995;50.842;4.456;2023-04-24T12:17:52;12.40;99.90
23637;DHT22;11995;50.842;4.456;2023-04-24T12:20:24;12.60;99.90
23637;DHT22;11995;50.842;4.456;2023-04-24T12:22:56;12.50;99.90
23637;DHT22;11995;50.842;4.456;2023-04-24T12:25:23;12.40;99.90
23637;DHT22;11995;50.842;4.456;2023-04-24T12:28:08;12.50;99.90
23637;DHT22;11995;50.842;4.456;2023-04-24T12:30:26;12.60;99.90
23637;DHT22;11995;50.842;4.456;2023-04-24T12:32:58;12.60;99.90
23637;DHT22;11995;50.842;4.456;2023-04-24T12:35:28;12.60;99.90
23637;DHT22;11995;50.842;4.456;2023-04-24T12:38:12;12.60;99.90
23637;DHT22;11995;50.842;4.456;2023-04-24T12:40:41;12.60;99.90
23637;DHT22;11995;50.842;4.456;2023-04-24T12:43:16;12.40;99.90
23637;DHT22;11995;50.842;4.456;2023-04-24T12:45:44;12.30;99.90
23637;DHT22;11995;50.842;4.456;2023-04-24T12:48:12;12.20;99.90
23637;DHT22;11995;50.842;4.456;2023-04-24T12:50:42;12.10;99.90
23637;DHT22;11995;50.842;4.456;2023-04-24T12:53:10;12.20;99.90
23637;DHT22;11995;50.842;4.456;2023-04-24T12:55:37;12.20;99.90
23637;DHT22;11995;50.842;4.456;2023-04-24T12:58:05;12.20;99.90
23637;DHT22;11995;50.842;4.456;2023-04-24T13:00:32;12.30;99.90
23637;DHT22;11995;50.842;4.456;2023-04-24T13:03:01;12.30;99.90
23637;DHT22;11995;50.842;4.456;2023-04-24T13:05:28;12.30;99.90
23637;DHT22;11995;50.842;4.456;2023-04-24T13:07:57;12.50;99.90
23637;DHT22;11995;50.842;4.456;2023-04-24T13:10:24;12.70;99.90
23637;DHT22;11995;50.842;4.456;2023-04-24T13:12:52;12.90;99.90
23637;DHT22;11995;50.842;4.456;2023-04-24T13:15:19;13.20;99.90
23637;DHT22;11995;50.842;4.456;2023-04-24T13:17:47;13.30;99.90
23637;DHT22;11995;50.842;4.456;2023-04-24T13:20:14;13.60;99.90
23637;DHT22;11995;50.842;4.456;2023-04-24T13:22:43;13.60;99.90
23637;DHT22;11995;50.842;4.456;2023-04-24T13:25:10;13.60;99.90
23637;DHT22;11995;50.842;4.456;2023-04-24T13:27:39;13.60;99.90
23637;DHT22;11995;50.842;4.456;2023-04-24T13:30:07;13.50;99.90
23637;DHT22;11995;50.842;4.456;2023-04-24T13:32:35;13.30;99.90
23637;DHT22;11995;50.842;4.456;2023-04-24T13:35:03;13.10;99.90
23637;DHT22;11995;50.842;4.456;2023-04-24T13:37:31;13.10;99.90
23637;DHT22;11995;50.842;4.456;2023-04-24T13:39:58;13.00;99.90
23637;DHT22;11995;50.842;4.456;2023-04-24T13:42:27;13.10;99.90
23637;DHT22;11995;50.842;4.456;2023-04-24T13:44:56;13.20;99.90
23637;DHT22;11995;50.842;4.456;2023-04-24T13:47:24;13.30;99.90
23637;DHT22;11995;50.842;4.456;2023-04-24T13:49:51;13.50;99.90
23637;DHT22;11995;50.842;4.456;2023-04-24T13:52:20;13.40;99.90
23637;DHT22;11995;50.842;4.456;2023-04-24T13:54:47;13.30;99.90
23637;DHT22;11995;50.842;4.456;2023-04-24T13:57:15;13.20;99.90
23637;DHT22;11995;50.842;4.456;2023-04-24T13:59:43;13.20;99.90
23637;DHT22;11995;50.842;4.456;2023-04-24T14:02:11;13.00;99.90
23637;DHT22;11995;50.842;4.456;2023-04-24T14:04:39;13.00;99.90
23637;DHT22;11995;50.842;4.456;2023-04-24T14:07:06;12.90;99.90
23637;DHT22;11995;50.842;4.456;2023-04-24T14:09:35;12.90;99.90
23637;DHT22;11995;50.842;4.456;2023-04-24T14:12:02;13.00;99.90
23637;DHT22;11995;50.842;4.456;2023-04-24T14:14:33;13.20;99.90
23637;DHT22;11995;50.842;4.456;2023-04-24T14:17:01;13.10;99.90
23637;DHT22;11995;50.842;4.456;2023-04-24T14:19:30;13.10;99.90
23637;DHT22;11995;50.842;4.456;2023-04-24T14:21:57;13.00;99.90
23637;DHT22;11995;50.842;4.456;2023-04-24T14:24:25;13.00;99.90
23637;DHT22;11995;50.842;4.456;2023-04-24T14:26:52;13.00;99.90
23637;DHT22;11995;50.842;4.456;2023-04-24T14:29:20;13.20;99.90
23637;DHT22;11995;50.842;4.456;2023-04-24T14:31:47;13.20;99.90
23637;DHT22;11995;50.842;4.456;2023-04-24T14:34:15;12.90;99.90
23637;DHT22;11995;50.842;4.456;2023-04-24T14:36:43;12.90;99.90
23637;DHT22;11995;50.842;4.456;2023-04-24T14:39:12;13.00;99.90
23637;DHT22;11995;50.842;4.456;2023-04-24T14:41:39;13.20;99.90
23637;DHT22;11995;50.842;4.456;2023-04-24T14:44:08;13.20;99.90
23637;DHT22;11995;50.842;4.456;2023-04-24T14:46:36;13.10;99.90
23637;DHT22;11995;50.842;4.456;2023-04-24T14:49:03;12.90;99.90
23637;DHT22;11995;50.842;4.456;2023-04-24T14:51:31;12.90;99.90
23637;DHT22;11995;50.842;4.456;2023-04-24T14:53:58;12.80;99.90
23637;DHT22;11995;50.842;4.456;2023-04-24T14:56:26;12.80;99.90
23637;DHT22;11995;50.842;4.456;2023-04-24T14:58:54;12.80;99.90
23637;DHT22;11995;50.842;4.456;2023-04-24T15:01:22;12.90;99.90
23637;DHT22;11995;50.842;4.456;2023-04-24T15:03:50;12.90;99.90
23637;DHT22;11995;50.842;4.456;2023-04-24T15:06:17;12.90;99.90
23637;DHT22;11995;50.842;4.456;2023-04-24T15:08:46;12.90;99.90
23637;DHT22;11995;50.842;4.456;2023-04-24T15:11:14;12.80;99.90
23637;DHT22;11995;50.842;4.456;2023-04-24T15:13:42;12.90;99.90
23637;DHT22;11995;50.842;4.456;2023-04-24T15:16:11;12.90;99.90
23637;DHT22;11995;50.842;4.456;2023-04-24T15:18:39;12.80;99.90
23637;DHT22;11995;50.842;4.456;2023-04-24T15:21:06;13.00;99.90
23637;DHT22;11995;50.842;4.456;2023-04-24T15:23:34;13.10;99.90
23637;DHT22;11995;50.842;4.456;2023-04-24T15:26:02;13.00;99.90
23637;DHT22;11995;50.842;4.456;2023-04-24T15:28:29;13.00;99.90
23637;DHT22;11995;50.842;4.456;2023-04-24T15:30:57;12.90;99.90
23637;DHT22;11995;50.842;4.456;2023-04-24T15:33:24;13.00;99.90
23637;DHT22;11995;50.842;4.456;2023-04-24T15:35:52;13.20;99.90
23637;DHT22;11995;50.842;4.456;2023-04-24T15:38:19;13.20;99.90
23637;DHT22;11995;50.842;4.456;2023-04-24T15:40:47;13.10;99.90
23637;DHT22;11995;50.842;4.456;2023-04-24T15:43:14;13.00;99.90
23637;DHT22;11995;50.842;4.456;2023-04-24T15:45:43;13.00;99.90
23637;DHT22;11995;50.842;4.456;2023-04-24T15:48:11;12.80;99.90
23637;DHT22;11995;50.842;4.456;2023-04-24T15:50:38;12.70;99.90
23637;DHT22;11995;50.842;4.456;2023-04-24T15:53:06;12.60;99.90
23637;DHT22;11995;50.842;4.456;2023-04-24T15:55:34;12.50;99.90